Terminal Aerodrome Forecast
Issued by NWS

Home | Current Version | Previous Version | Text Only | Print | Product List | Glossary On
Versions: 1 2 3 4 5 6 7 8 9 10 11 12 13 14 15
934
FTUS46 KMTR 260544
TAFSNS
TAF
KSNS 260544Z 2606/2706 11005KT P6SM SCT030 OVC100
     FM261000 10003KT P6SM FEW040 SCT060 BKN180
     FM261900 25010KT P6SM FEW060 SCT220
     FM270300 24008KT P6SM FEW050 SCT200=

USA.gov is the U.S. government's official web portal to all federal, state and local government web resources and services.